createdAt,value
2023-05-14T00:01:52.112Z,100996.19
2023-05-14T00:04:19.771Z,100992.19
2023-05-14T00:06:46.646Z,100986.97
2023-05-14T00:09:13.462Z,100989.41
2023-05-14T00:11:40.218Z,100986.00
2023-05-14T00:14:06.929Z,100980.91
2023-05-14T00:16:33.695Z,100975.56
2023-05-14T00:19:00.433Z,100972.56
2023-05-14T00:21:27.128Z,100976.66
2023-05-14T00:23:53.804Z,100971.91
2023-05-14T00:26:21.529Z,100967.16
2023-05-14T00:28:49.164Z,100962.22
2023-05-14T00:31:16.080Z,100953.63
2023-05-14T00:33:42.853Z,100953.22
2023-05-14T00:36:09.724Z,100947.88
2023-05-14T00:38:36.676Z,100952.66
2023-05-14T00:41:03.682Z,100953.72
2023-05-14T00:43:31.967Z,100950.09
2023-05-14T00:45:59.301Z,100952.78
2023-05-14T00:48:26.469Z,100951.78
2023-05-14T00:50:53.261Z,100953.28
2023-05-14T00:53:20.894Z,100951.22
2023-05-14T00:55:49.504Z,100944.03
2023-05-14T00:58:18.848Z,100947.09
2023-05-14T01:00:45.957Z,100950.34
2023-05-14T01:03:13.032Z,100943.31
2023-05-14T01:05:53.736Z,100943.94
2023-05-14T01:08:20.542Z,100939.66
2023-05-14T01:11:03.835Z,100937.31
2023-05-14T01:13:47.337Z,100944.28
2023-05-14T01:16:18.316Z,100945.28
2023-05-14T01:18:46.808Z,100934.88
2023-05-14T01:21:40.405Z,100931.09
2023-05-14T01:24:09.390Z,100939.25
2023-05-14T01:26:37.071Z,100927.22
2023-05-14T01:29:19.004Z,100934.16
2023-05-14T01:31:48.994Z,100931.47
2023-05-14T01:34:19.381Z,100934.25
2023-05-14T01:36:48.593Z,100932.19
2023-05-14T01:39:15.733Z,100918.59
2023-05-14T01:41:43.398Z,100922.94
2023-05-14T01:44:11.176Z,100919.09
2023-05-14T01:46:38.230Z,100913.13
2023-05-14T01:49:05.184Z,100914.69
2023-05-14T01:51:32.234Z,100904.75
2023-05-14T01:53:59.036Z,100901.97
2023-05-14T01:56:25.911Z,100898.41
2023-05-14T01:58:52.949Z,100899.03
2023-05-14T02:01:19.699Z,100892.56
2023-05-14T02:03:47.624Z,100885.28
2023-05-14T02:06:14.492Z,100887.25
2023-05-14T02:08:41.178Z,100885.06
2023-05-14T02:11:07.957Z,100883.09
2023-05-14T02:13:36.330Z,100890.38
2023-05-14T02:16:03.308Z,100882.13
2023-05-14T02:18:30.066Z,100876.06
2023-05-14T02:20:57.552Z,100876.66
2023-05-14T02:23:34.197Z,100871.72
2023-05-14T02:26:09.865Z,100872.56
2023-05-14T02:28:36.632Z,100874.09
2023-05-14T02:31:03.760Z,100877.00
2023-05-14T02:33:30.600Z,100872.00
2023-05-14T02:35:57.478Z,100872.63
2023-05-14T02:38:24.282Z,100873.34
2023-05-14T02:40:51.034Z,100871.91
2023-05-14T02:43:17.821Z,100857.81
2023-05-14T02:45:44.668Z,100861.84
2023-05-14T02:48:11.825Z,100871.16
2023-05-14T02:50:38.630Z,100865.81
2023-05-14T02:53:05.490Z,100858.91
2023-05-14T02:55:32.195Z,100858.13
2023-05-14T02:57:59.078Z,100850.97
2023-05-14T03:00:26.140Z,100842.94
2023-05-14T03:02:53.550Z,100834.22
2023-05-14T03:05:21.092Z,100833.91
2023-05-14T03:07:47.799Z,100828.44
2023-05-14T03:10:14.690Z,100829.59
2023-05-14T03:12:41.715Z,100827.44
2023-05-14T03:15:09.233Z,100828.28
2023-05-14T03:17:36.098Z,100826.81
2023-05-14T03:20:03.567Z,100817.50
2023-05-14T03:22:30.419Z,100820.25
2023-05-14T03:24:57.313Z,100804.41
2023-05-14T03:27:24.093Z,100806.63
2023-05-14T03:29:50.785Z,100797.78
2023-05-14T03:32:18.303Z,100793.56
2023-05-14T03:34:45.194Z,100792.09
2023-05-14T03:37:11.918Z,100783.13
2023-05-14T03:39:38.705Z,100778.03
2023-05-14T03:42:05.631Z,100777.78
2023-05-14T03:44:32.349Z,100771.72
2023-05-14T03:46:59.146Z,100771.16
2023-05-14T03:49:26.280Z,100774.94
2023-05-14T03:51:53.094Z,100771.53
2023-05-14T03:54:19.875Z,100769.84
2023-05-14T03:56:46.671Z,100763.06
2023-05-14T03:59:13.385Z,100764.63
2023-05-14T04:01:40.238Z,100768.16
2023-05-14T04:04:07.023Z,100760.88
2023-05-14T04:06:34.591Z,100762.66
2023-05-14T04:09:02.615Z,100756.78
2023-05-14T04:11:29.694Z,100749.59
2023-05-14T04:13:56.681Z,100757.03
2023-05-14T04:16:23.581Z,100749.00
2023-05-14T04:18:50.443Z,100759.25
2023-05-14T04:21:17.232Z,100758.66
2023-05-14T04:23:43.957Z,100761.28
2023-05-14T04:26:10.819Z,100749.88
2023-05-14T04:28:37.475Z,100752.28
2023-05-14T04:31:04.637Z,100741.38
2023-05-14T04:33:31.362Z,100746.53
2023-05-14T04:35:58.040Z,100739.75
2023-05-14T04:38:24.784Z,100742.41
2023-05-14T04:40:51.522Z,100737.66
2023-05-14T04:43:18.249Z,100727.84
2023-05-14T04:45:45.045Z,100726.41
2023-05-14T04:48:12.298Z,100731.75
2023-05-14T04:50:39.061Z,100729.06
2023-05-14T04:53:05.718Z,100720.75
2023-05-14T04:55:32.477Z,100716.84
2023-05-14T04:57:59.165Z,100714.91
2023-05-14T05:00:26.033Z,100715.84
2023-05-14T05:02:53.112Z,100720.34
2023-05-14T05:05:20.121Z,100713.31
2023-05-14T05:07:46.976Z,100707.13
2023-05-14T05:10:13.745Z,100706.75
2023-05-14T05:12:41.421Z,100702.59
2023-05-14T05:15:09.660Z,100710.22
2023-05-14T05:17:37.002Z,100704.91
2023-05-14T05:20:05.667Z,100700.16
2023-05-14T05:22:32.516Z,100701.47
2023-05-14T05:24:59.990Z,100700.38
2023-05-14T05:27:27.058Z,100686.41
2023-05-14T05:29:53.741Z,100678.38
2023-05-14T05:32:20.517Z,100662.53
2023-05-14T05:34:47.318Z,100647.44
2023-05-14T05:37:15.003Z,100634.09
2023-05-14T05:39:41.779Z,100621.66
2023-05-14T05:42:08.817Z,100602.97
2023-05-14T05:44:35.575Z,100580.72
2023-05-14T05:47:02.456Z,100575.75
2023-05-14T05:49:29.309Z,100583.25
2023-05-14T05:51:56.090Z,100594.94
2023-05-14T05:54:24.933Z,100604.91
2023-05-14T05:56:52.066Z,100607.25
2023-05-14T05:59:18.921Z,100609.09
2023-05-14T06:01:45.660Z,100614.03
2023-05-14T06:04:12.389Z,100614.09
2023-05-14T06:06:39.044Z,100612.44
2023-05-14T06:09:07.111Z,100605.44
2023-05-14T06:11:33.800Z,100596.75
2023-05-14T06:14:00.727Z,100592.69
2023-05-14T06:16:28.009Z,100584.34
2023-05-14T06:18:55.915Z,100582.72
2023-05-14T06:21:22.690Z,100586.19
2023-05-14T06:23:49.476Z,100588.91
2023-05-14T06:26:16.167Z,100595.63
2023-05-14T06:28:42.901Z,100597.03
2023-05-14T06:31:09.656Z,100578.03
2023-05-14T06:33:36.617Z,100570.94
2023-05-14T06:36:07.842Z,100574.53
2023-05-14T06:38:34.445Z,100584.03
2023-05-14T06:41:01.165Z,100585.53
2023-05-14T06:43:28.338Z,100593.69
2023-05-14T06:45:55.089Z,100597.50
2023-05-14T06:48:21.973Z,100595.59
2023-05-14T06:50:49.848Z,100620.16
2023-05-14T06:53:16.932Z,100639.72
2023-05-14T06:55:43.741Z,100642.34
2023-05-14T06:58:10.450Z,100636.22
2023-05-14T07:00:37.198Z,100642.81
2023-05-14T07:03:03.975Z,100668.50
2023-05-14T07:05:30.944Z,100684.94
2023-05-14T07:07:57.701Z,100680.66
2023-05-14T07:10:25.107Z,100684.38
2023-05-14T07:12:52.083Z,100675.88
2023-05-14T07:15:18.918Z,100674.78
2023-05-14T07:17:45.659Z,100683.72
2023-05-14T07:20:13.070Z,100669.78
2023-05-14T07:22:39.816Z,100676.25
2023-05-14T07:25:07.332Z,100681.44
2023-05-14T07:27:34.072Z,100676.38
2023-05-14T07:30:04.748Z,100680.25
2023-05-14T07:32:34.270Z,100674.59
2023-05-14T07:35:06.351Z,100662.13
2023-05-14T07:37:33.201Z,100643.59
2023-05-14T07:40:00.047Z,100627.41
2023-05-14T07:42:36.709Z,100621.19
2023-05-14T07:45:04.987Z,100620.66
2023-05-14T07:47:34.941Z,100619.50
2023-05-14T07:50:05.879Z,100623.25
2023-05-14T07:52:32.640Z,100614.19
2023-05-14T07:55:00.015Z,100619.47
2023-05-14T07:57:29.469Z,100622.56
2023-05-14T07:59:57.082Z,100619.63
2023-05-14T08:02:25.104Z,100625.22
2023-05-14T08:04:52.108Z,100631.41
2023-05-14T08:07:18.931Z,100615.06
2023-05-14T08:09:46.787Z,100605.94
2023-05-14T08:12:14.021Z,100604.47
2023-05-14T08:14:44.399Z,100609.72
2023-05-14T08:17:14.295Z,100593.50
2023-05-14T08:19:41.103Z,100591.72
2023-05-14T08:22:08.149Z,100596.84
2023-05-14T08:24:35.224Z,100592.41
2023-05-14T08:27:02.420Z,100580.94
2023-05-14T08:29:29.121Z,100586.47
2023-05-14T08:31:55.903Z,100578.03
2023-05-14T08:34:26.681Z,100578.47
2023-05-14T08:36:53.619Z,100583.03
2023-05-14T08:39:20.298Z,100579.94
2023-05-14T08:41:48.041Z,100575.88
2023-05-14T08:44:19.038Z,100584.59
2023-05-14T08:46:46.083Z,100577.03
2023-05-14T08:49:33.433Z,100569.63
2023-05-14T08:52:00.678Z,100569.56
2023-05-14T08:54:28.818Z,100569.19
2023-05-14T08:56:55.771Z,100570.56
2023-05-14T08:59:22.868Z,100573.16
2023-05-14T09:01:53.750Z,100568.34
2023-05-14T09:04:23.405Z,100572.66
2023-05-14T09:06:54.487Z,100579.53
2023-05-14T09:09:22.629Z,100571.41
2023-05-14T09:11:53.957Z,100567.06
2023-05-14T09:14:22.720Z,100559.13
2023-05-14T09:16:51.490Z,100551.56
2023-05-14T09:19:19.541Z,100562.38
2023-05-14T09:21:49.598Z,100562.09
2023-05-14T09:24:24.534Z,100556.53
2023-05-14T09:26:56.341Z,100563.88
2023-05-14T09:29:30.180Z,100546.72
2023-05-14T09:31:58.334Z,100547.97
2023-05-14T09:34:30.927Z,100532.47
2023-05-14T09:36:59.504Z,100549.91
2023-05-14T09:39:26.930Z,100551.06
2023-05-14T09:41:54.294Z,100550.69
2023-05-14T09:44:21.656Z,100549.63
2023-05-14T09:46:49.105Z,100540.50
2023-05-14T09:49:16.161Z,100545.41
2023-05-14T09:51:43.261Z,100541.47
2023-05-14T09:54:10.289Z,100537.84
2023-05-14T09:56:37.733Z,100533.69
2023-05-14T09:59:04.480Z,100529.66
2023-05-14T10:01:33.044Z,100524.66
2023-05-14T10:04:00.364Z,100526.09
2023-05-14T10:06:30.514Z,100521.31
2023-05-14T10:09:01.511Z,100509.63
2023-05-14T10:11:32.739Z,100521.50
2023-05-14T10:14:12.467Z,100523.06
2023-05-14T10:16:43.635Z,100527.56
2023-05-14T10:19:11.396Z,100527.09
2023-05-14T10:21:40.952Z,100521.22
2023-05-14T10:24:08.642Z,100521.53
2023-05-14T10:26:39.504Z,100523.88
2023-05-14T10:29:07.026Z,100518.16
2023-05-14T10:31:54.194Z,100512.16
2023-05-14T10:34:44.298Z,100514.28
2023-05-14T10:37:14.639Z,100522.34
2023-05-14T10:39:51.592Z,100534.31
2023-05-14T10:42:19.969Z,100527.41
2023-05-14T10:44:59.737Z,100525.41
2023-05-14T10:47:27.138Z,100521.28
2023-05-14T10:49:59.607Z,100520.09
2023-05-14T10:52:26.753Z,100515.47
2023-05-14T10:55:03.074Z,100507.28
2023-05-14T10:57:32.015Z,100508.09
2023-05-14T11:00:01.331Z,100509.91
2023-05-14T11:02:30.689Z,100517.34
2023-05-14T11:05:06.069Z,100536.69
2023-05-14T11:07:38.490Z,100543.13
2023-05-14T11:10:06.654Z,100547.16
2023-05-14T11:12:35.405Z,100540.09
2023-05-14T11:15:07.262Z,100538.47
2023-05-14T11:17:35.657Z,100532.41
2023-05-14T11:20:02.831Z,100521.03
2023-05-14T11:22:30.235Z,100526.56
2023-05-14T11:24:57.537Z,100526.88
2023-05-14T11:27:27.471Z,100519.75
2023-05-14T11:29:55.991Z,100522.75
2023-05-14T11:32:22.914Z,100519.59
2023-05-14T11:34:49.841Z,100521.28
2023-05-14T11:37:16.925Z,100503.69
2023-05-14T11:39:55.277Z,100525.13
2023-05-14T11:42:23.723Z,100517.47
2023-05-14T11:44:52.286Z,100511.50
2023-05-14T11:47:21.357Z,100516.13
2023-05-14T11:49:49.208Z,100517.16
2023-05-14T11:52:19.499Z,100507.28
2023-05-14T11:54:47.105Z,100513.72
2023-05-14T11:57:17.134Z,100518.25
2023-05-14T11:59:43.979Z,100516.19
2023-05-14T12:02:14.166Z,100519.19
2023-05-14T12:04:42.895Z,100529.47
2023-05-14T12:07:11.985Z,100515.13
2023-05-14T12:09:42.604Z,100493.88
2023-05-14T12:12:12.447Z,100425.63
2023-05-14T12:14:45.357Z,100419.28
2023-05-14T12:17:22.593Z,100408.88
2023-05-14T12:20:00.329Z,100412.84
2023-05-14T12:22:29.860Z,100407.16
2023-05-14T12:24:58.837Z,100413.38
2023-05-14T12:27:27.558Z,100406.09
2023-05-14T12:32:37.879Z,100387.59
2023-05-14T12:35:05.043Z,100386.13
2023-05-14T12:37:32.138Z,100389.56
2023-05-14T12:39:58.849Z,100387.06
2023-05-14T12:42:25.620Z,100388.63
2023-05-14T12:44:52.409Z,100374.19
2023-05-14T12:47:19.422Z,100375.41
2023-05-14T12:49:46.269Z,100372.56
2023-05-14T12:54:43.514Z,100362.53
2023-05-14T12:57:10.421Z,100364.75
2023-05-14T12:59:37.170Z,100363.19
2023-05-14T13:02:04.017Z,100363.09
2023-05-14T13:04:30.768Z,100358.25
2023-05-14T13:06:57.579Z,100356.03
2023-05-14T13:09:24.238Z,100353.06
2023-05-14T13:11:51.156Z,100346.81
2023-05-14T13:14:20.171Z,100350.16
2023-05-14T13:16:47.161Z,100336.50
2023-05-14T13:19:14.004Z,100331.69
2023-05-14T13:21:41.021Z,100338.63
2023-05-14T13:24:10.151Z,100335.66
2023-05-14T13:26:37.697Z,100327.84
2023-05-14T13:29:04.377Z,100323.75
2023-05-14T13:31:31.174Z,100329.16
2023-05-14T13:33:59.446Z,100334.03
2023-05-14T13:36:26.484Z,100327.56
2023-05-14T13:38:53.276Z,100321.03
2023-05-14T13:41:20.019Z,100315.75
2023-05-14T13:43:46.668Z,100310.81
2023-05-14T13:46:13.582Z,100313.59
2023-05-14T13:48:40.365Z,100306.28
2023-05-14T13:51:07.137Z,100304.47
2023-05-14T13:53:33.887Z,100305.25
2023-05-14T13:56:01.789Z,100298.31
2023-05-14T13:58:28.793Z,100297.44
2023-05-14T14:00:56.664Z,100292.78
2023-05-14T14:03:23.585Z,100283.16
2023-05-14T14:05:51.661Z,100289.69
2023-05-14T14:08:23.925Z,100291.34
2023-05-14T14:10:54.500Z,100297.00
2023-05-14T14:13:22.989Z,100296.63
2023-05-14T14:15:50.259Z,100304.06
2023-05-14T14:18:17.992Z,100323.00
2023-05-14T14:20:44.674Z,100343.84
2023-05-14T14:23:11.400Z,100370.38
2023-05-14T14:25:38.265Z,100365.59
2023-05-14T14:28:05.087Z,100373.69
2023-05-14T14:30:33.270Z,100371.53
2023-05-14T14:33:01.363Z,100362.66
2023-05-14T14:35:28.491Z,100376.25
2023-05-14T14:37:55.816Z,100375.41
2023-05-14T14:40:24.015Z,100381.47
2023-05-14T14:42:50.830Z,100376.13
2023-05-14T14:45:17.669Z,100362.53
2023-05-14T14:47:46.358Z,100359.44
2023-05-14T14:50:13.809Z,100368.00
2023-05-14T14:52:45.629Z,100367.88
2023-05-14T14:55:12.967Z,100361.00
2023-05-14T14:57:39.828Z,100360.03
2023-05-14T15:00:07.370Z,100339.88
2023-05-14T15:02:34.750Z,100346.91
2023-05-14T15:05:01.759Z,100347.72
2023-05-14T15:07:32.806Z,100351.28
2023-05-14T15:09:59.584Z,100350.25
2023-05-14T15:12:26.312Z,100335.69
2023-05-14T15:14:53.072Z,100348.25
2023-05-14T15:17:19.761Z,100348.09
2023-05-14T15:19:46.739Z,100339.88
2023-05-14T15:22:13.556Z,100335.84
2023-05-14T15:24:40.343Z,100325.78
2023-05-14T15:27:07.039Z,100336.47
2023-05-14T15:29:35.015Z,100335.34
2023-05-14T15:32:02.274Z,100326.28
2023-05-14T15:34:29.286Z,100330.13
2023-05-14T15:36:55.962Z,100331.81
2023-05-14T15:39:22.749Z,100334.84
2023-05-14T15:41:49.466Z,100325.63
2023-05-14T15:44:16.336Z,100331.00
2023-05-14T15:46:43.037Z,100336.00
2023-05-14T15:49:09.946Z,100328.13
2023-05-14T15:51:36.628Z,100329.44
2023-05-14T15:54:04.966Z,100331.81
2023-05-14T15:56:31.728Z,100329.13
2023-05-14T15:58:58.470Z,100328.63
2023-05-14T16:01:25.185Z,100327.13
2023-05-14T16:03:52.904Z,100329.97
2023-05-14T16:06:19.751Z,100337.03
2023-05-14T16:08:46.523Z,100338.53
2023-05-14T16:11:13.231Z,100340.53
2023-05-14T16:13:41.601Z,100339.19
2023-05-14T16:16:08.577Z,100339.22
2023-05-14T16:18:36.386Z,100344.06
2023-05-14T16:21:03.720Z,100339.72
2023-05-14T16:23:30.614Z,100337.84
2023-05-14T16:25:57.884Z,100334.19
2023-05-14T16:28:24.789Z,100340.06
2023-05-14T16:30:51.564Z,100333.16
2023-05-14T16:33:18.262Z,100336.03
2023-05-14T16:35:45.545Z,100334.19
2023-05-14T16:38:12.280Z,100326.75
2023-05-14T16:40:39.017Z,100324.94
2023-05-14T16:43:06.017Z,100337.00
2023-05-14T16:45:34.819Z,100341.31
2023-05-14T16:48:01.582Z,100352.72
2023-05-14T16:50:28.494Z,100371.44
2023-05-14T16:52:55.208Z,100371.41
2023-05-14T16:55:22.086Z,100360.75
2023-05-14T16:57:48.941Z,100372.84
2023-05-14T17:00:16.119Z,100378.09
2023-05-14T17:02:42.798Z,100384.34
2023-05-14T17:05:09.805Z,100365.72
2023-05-14T17:07:38.452Z,100363.72
2023-05-14T17:10:06.439Z,100351.28
2023-05-14T17:12:33.232Z,100349.94
2023-05-14T17:15:01.975Z,100345.22
2023-05-14T17:17:32.200Z,100350.19
2023-05-14T17:19:58.960Z,100360.88
2023-05-14T17:22:25.891Z,100357.69
2023-05-14T17:24:52.969Z,100352.47
2023-05-14T17:27:19.600Z,100357.50
2023-05-14T17:29:46.269Z,100354.50
2023-05-14T17:32:13.033Z,100360.72
2023-05-14T17:34:39.811Z,100360.22
2023-05-14T17:37:06.935Z,100361.88
2023-05-14T17:39:33.751Z,100375.75
2023-05-14T17:42:00.542Z,100372.16
2023-05-14T17:44:27.206Z,100371.03
2023-05-14T17:46:53.929Z,100373.09
2023-05-14T17:49:20.702Z,100379.06
2023-05-14T17:51:47.472Z,100384.72
2023-05-14T17:54:14.210Z,100375.16
2023-05-14T17:56:41.092Z,100366.53
2023-05-14T17:59:07.856Z,100372.28
2023-05-14T18:01:34.551Z,100375.75
2023-05-14T18:04:01.434Z,100372.91
2023-05-14T18:06:28.285Z,100378.03
2023-05-14T18:08:54.975Z,100389.88
2023-05-14T18:11:21.681Z,100387.59
2023-05-14T18:13:48.388Z,100393.63
2023-05-14T18:16:15.244Z,100397.97
2023-05-14T18:18:42.104Z,100390.63
2023-05-14T18:21:08.971Z,100381.06
2023-05-14T18:23:35.822Z,100375.44
2023-05-14T18:26:02.629Z,100377.13
2023-05-14T18:28:29.370Z,100386.06
2023-05-14T18:30:56.131Z,100378.31
2023-05-14T18:33:22.822Z,100379.56
2023-05-14T18:35:49.485Z,100386.06
2023-05-14T18:38:17.915Z,100379.22
2023-05-14T18:40:44.652Z,100382.56
2023-05-14T18:43:13.400Z,100386.28
2023-05-14T18:45:40.474Z,100380.59
2023-05-14T18:48:07.267Z,100390.81
2023-05-14T18:50:33.977Z,100397.81
2023-05-14T18:53:00.637Z,100394.66
2023-05-14T18:55:27.540Z,100401.66
2023-05-14T18:57:54.284Z,100413.47
2023-05-14T19:00:20.952Z,100418.31
2023-05-14T19:02:47.948Z,100431.00
2023-05-14T19:05:14.712Z,100421.69
2023-05-14T19:07:43.041Z,100429.13
2023-05-14T19:10:10.919Z,100433.34
2023-05-14T19:12:37.647Z,100427.13
2023-05-14T19:15:05.614Z,100430.72
2023-05-14T19:17:32.869Z,100436.75
2023-05-14T19:19:59.692Z,100439.16
2023-05-14T19:22:26.384Z,100444.22
2023-05-14T19:24:53.108Z,100453.22
2023-05-14T19:27:20.711Z,100457.59
2023-05-14T19:29:47.442Z,100451.72
2023-05-14T19:32:14.199Z,100457.19
2023-05-14T19:34:41.180Z,100459.41
2023-05-14T19:37:08.060Z,100465.47
2023-05-14T19:39:34.765Z,100463.06
2023-05-14T19:42:01.618Z,100466.16
2023-05-14T19:44:28.336Z,100465.53
2023-05-14T19:46:55.141Z,100469.47
2023-05-14T19:49:21.858Z,100471.44
2023-05-14T19:51:49.795Z,100469.19
2023-05-14T19:54:16.569Z,100472.56
2023-05-14T19:56:43.292Z,100472.66
2023-05-14T19:59:09.935Z,100469.03
2023-05-14T20:01:36.798Z,100469.97
2023-05-14T20:04:03.870Z,100475.66
2023-05-14T20:06:32.125Z,100475.56
2023-05-14T20:08:59.142Z,100479.63
2023-05-14T20:11:25.985Z,100473.94
2023-05-14T20:13:52.797Z,100470.91
2023-05-14T20:16:19.606Z,100473.19
2023-05-14T20:18:46.434Z,100458.44
2023-05-14T20:21:13.235Z,100456.09
2023-05-14T20:23:40.867Z,100462.66
2023-05-14T20:26:07.739Z,100456.09
2023-05-14T20:28:34.479Z,100466.25
2023-05-14T20:31:04.129Z,100460.34
2023-05-14T20:33:30.930Z,100465.75
2023-05-14T20:35:57.717Z,100467.63
2023-05-14T20:38:25.752Z,100466.53
2023-05-14T20:40:52.503Z,100473.56
2023-05-14T20:43:19.237Z,100476.56
2023-05-14T20:45:46.172Z,100471.03
2023-05-14T20:48:16.288Z,100480.91
2023-05-14T20:50:43.604Z,100477.28
2023-05-14T20:53:10.361Z,100480.41
2023-05-14T20:55:37.082Z,100482.38
2023-05-14T20:58:03.803Z,100473.88
2023-05-14T21:00:30.582Z,100478.38
2023-05-14T21:02:57.701Z,100472.88
2023-05-14T21:05:24.887Z,100481.03
2023-05-14T21:07:51.787Z,100475.25
2023-05-14T21:10:18.607Z,100477.91
2023-05-14T21:12:45.551Z,100476.22
2023-05-14T21:15:14.876Z,100482.91
2023-05-14T21:17:41.974Z,100481.56
2023-05-14T21:20:09.370Z,100477.97
2023-05-14T21:22:39.041Z,100484.13
2023-05-14T21:25:06.269Z,100475.66
2023-05-14T21:27:33.251Z,100471.38
2023-05-14T21:30:00.051Z,100473.19
2023-05-14T21:32:27.020Z,100471.22
2023-05-14T21:34:53.811Z,100483.88
2023-05-14T21:37:21.867Z,100476.13
2023-05-14T21:39:48.661Z,100484.22
2023-05-14T21:42:16.267Z,100490.41
2023-05-14T21:44:43.058Z,100483.47
2023-05-14T21:47:09.817Z,100486.84
2023-05-14T21:49:36.774Z,100486.34
2023-05-14T21:52:04.465Z,100487.91
2023-05-14T21:54:31.179Z,100478.69
2023-05-14T21:56:58.068Z,100480.66
2023-05-14T21:59:24.874Z,100481.81
2023-05-14T22:02:06.396Z,100482.63
2023-05-14T22:04:34.322Z,100499.28
2023-05-14T22:07:01.604Z,100493.16
2023-05-14T22:09:28.882Z,100491.75
2023-05-14T22:11:56.478Z,100491.50
2023-05-14T22:14:23.245Z,100496.72
2023-05-14T22:16:50.288Z,100493.31
2023-05-14T22:19:17.225Z,100489.53
2023-05-14T22:21:44.091Z,100491.19
2023-05-14T22:24:10.839Z,100490.06
2023-05-14T22:26:37.556Z,100494.00
2023-05-14T22:29:04.755Z,100506.91
2023-05-14T22:31:33.913Z,100503.25
2023-05-14T22:34:00.653Z,100510.50
2023-05-14T22:36:27.458Z,100518.22
2023-05-14T22:38:54.338Z,100510.06
2023-05-14T22:41:22.190Z,100514.28
2023-05-14T22:43:49.438Z,100515.84
2023-05-14T22:46:16.373Z,100511.91
2023-05-14T22:48:43.115Z,100512.31
2023-05-14T22:51:09.927Z,100514.84
2023-05-14T22:53:36.765Z,100503.44
2023-05-14T22:56:04.607Z,100501.94
2023-05-14T22:58:31.416Z,100507.28
2023-05-14T23:00:58.190Z,100511.06
2023-05-14T23:03:24.869Z,100510.81
2023-05-14T23:05:52.196Z,100499.69
2023-05-14T23:08:18.890Z,100506.00
2023-05-14T23:10:45.696Z,100502.22
2023-05-14T23:13:12.674Z,100501.53
2023-05-14T23:15:39.475Z,100507.72
2023-05-14T23:18:07.685Z,100504.63
2023-05-14T23:20:34.530Z,100499.72
2023-05-14T23:23:01.194Z,100514.88
2023-05-14T23:25:27.982Z,100508.66
2023-05-14T23:27:54.700Z,100514.44
2023-05-14T23:30:21.453Z,100509.50
2023-05-14T23:32:48.207Z,100517.13
2023-05-14T23:35:14.952Z,100517.16
2023-05-14T23:37:47.070Z,100515.19
2023-05-14T23:40:19.722Z,100521.78
2023-05-14T23:42:46.661Z,100516.16
2023-05-14T23:45:13.678Z,100518.25
2023-05-14T23:47:41.134Z,100519.94
2023-05-14T23:50:08.121Z,100519.94
2023-05-14T23:52:34.969Z,100522.06
2023-05-14T23:55:01.929Z,100525.28
2023-05-14T23:57:29.061Z,100534.28
2023-05-14T23:59:55.921Z,100538.50
